sensor_id;sensor_type;location;lat;lon;timestamp;P1;durP1;ratioP1;P2;durP2;ratioP2
35380;SDS011;21486;51.916;8.378;2023-02-28T01:33:02;11.40;;;7.27;;
35380;SDS011;21486;51.916;8.378;2023-02-28T01:35:27;12.73;;;7.00;;
35380;SDS011;21486;51.916;8.378;2023-02-28T01:37:53;14.93;;;7.93;;
35380;SDS011;21486;51.916;8.378;2023-02-28T01:40:18;13.10;;;7.22;;
35380;SDS011;21486;51.916;8.378;2023-02-28T01:42:44;12.95;;;6.95;;
35380;SDS011;21486;51.916;8.378;2023-02-28T01:45:29;12.07;;;7.03;;
35380;SDS011;21486;51.916;8.378;2023-02-28T01:47:58;14.20;;;6.50;;
35380;SDS011;21486;51.916;8.378;2023-02-28T01:50:29;12.35;;;6.55;;
35380;SDS011;21486;51.916;8.378;2023-02-28T01:53:00;15.18;;;6.60;;
35380;SDS011;21486;51.916;8.378;2023-02-28T01:55:29;10.75;;;5.90;;
35380;SDS011;21486;51.916;8.378;2023-02-28T01:57:57;11.88;;;6.03;;
35380;SDS011;21486;51.916;8.378;2023-02-28T02:00:26;11.93;;;6.20;;
35380;SDS011;21486;51.916;8.378;2023-02-28T02:02:54;10.70;;;6.30;;
35380;SDS011;21486;51.916;8.378;2023-02-28T02:05:24;11.25;;;6.32;;
35380;SDS011;21486;51.916;8.378;2023-02-28T02:07:54;12.80;;;6.10;;
35380;SDS011;21486;51.916;8.378;2023-02-28T02:10:33;12.47;;;6.90;;
35380;SDS011;21486;51.916;8.378;2023-02-28T02:16:28;12.10;;;7.43;;
35380;SDS011;21486;51.916;8.378;2023-02-28T02:24:54;15.43;;;7.88;;
35380;SDS011;21486;51.916;8.378;2023-02-28T02:27:48;13.50;;;7.18;;
35380;SDS011;21486;51.916;8.378;2023-02-28T02:36:26;14.05;;;7.55;;
35380;SDS011;21486;51.916;8.378;2023-02-28T02:41:46;11.57;;;7.70;;
35380;SDS011;21486;51.916;8.378;2023-02-28T02:45:04;13.60;;;7.82;;
35380;SDS011;21486;51.916;8.378;2023-02-28T02:47:53;12.52;;;7.60;;
35380;SDS011;21486;51.916;8.378;2023-02-28T02:50:29;12.95;;;7.68;;
35380;SDS011;21486;51.916;8.378;2023-02-28T02:53:01;11.98;;;7.68;;
35380;SDS011;21486;51.916;8.378;2023-02-28T02:55:30;14.40;;;7.80;;
35380;SDS011;21486;51.916;8.378;2023-02-28T02:58:00;13.88;;;7.50;;
35380;SDS011;21486;51.916;8.378;2023-02-28T03:00:33;14.10;;;7.20;;
35380;SDS011;21486;51.916;8.378;2023-02-28T03:03:09;11.43;;;7.20;;
35380;SDS011;21486;51.916;8.378;2023-02-28T03:05:39;14.27;;;7.15;;
35380;SDS011;21486;51.916;8.378;2023-02-28T03:08:12;12.07;;;6.97;;
35380;SDS011;21486;51.916;8.378;2023-02-28T03:10:44;14.20;;;7.53;;
35380;SDS011;21486;51.916;8.378;2023-02-28T03:13:25;12.43;;;7.47;;
35380;SDS011;21486;51.916;8.378;2023-02-28T03:19:33;10.45;;;6.55;;
35380;SDS011;21486;51.916;8.378;2023-02-28T03:24:37;14.90;;;6.88;;
35380;SDS011;21486;51.916;8.378;2023-02-28T03:29:50;10.27;;;6.20;;
35380;SDS011;21486;51.916;8.378;2023-02-28T03:32:25;12.68;;;6.32;;
35380;SDS011;21486;51.916;8.378;2023-02-28T03:34:59;11.55;;;6.55;;
35380;SDS011;21486;51.916;8.378;2023-02-28T03:37:30;11.90;;;6.65;;
35380;SDS011;21486;51.916;8.378;2023-02-28T03:40:07;11.48;;;6.85;;
35380;SDS011;21486;51.916;8.378;2023-02-28T03:42:39;14.32;;;6.72;;
35380;SDS011;21486;51.916;8.378;2023-02-28T03:45:15;10.30;;;6.20;;
35380;SDS011;21486;51.916;8.378;2023-02-28T03:47:46;12.27;;;6.90;;
35380;SDS011;21486;51.916;8.378;2023-02-28T03:50:22;10.82;;;6.47;;
35380;SDS011;21486;51.916;8.378;2023-02-28T03:52:58;11.57;;;6.70;;
35380;SDS011;21486;51.916;8.378;2023-02-28T03:55:30;13.20;;;6.75;;
35380;SDS011;21486;51.916;8.378;2023-02-28T03:58:12;12.73;;;6.72;;
35380;SDS011;21486;51.916;8.378;2023-02-28T04:00:47;10.43;;;6.65;;
35380;SDS011;21486;51.916;8.378;2023-02-28T04:03:19;12.57;;;6.70;;
35380;SDS011;21486;51.916;8.378;2023-02-28T04:05:49;10.82;;;6.72;;
35380;SDS011;21486;51.916;8.378;2023-02-28T04:08:16;11.40;;;7.20;;
35380;SDS011;21486;51.916;8.378;2023-02-28T04:10:43;11.37;;;6.73;;
35380;SDS011;21486;51.916;8.378;2023-02-28T04:13:13;16.23;;;7.22;;
35380;SDS011;21486;51.916;8.378;2023-02-28T04:15:39;12.73;;;7.13;;
35380;SDS011;21486;51.916;8.378;2023-02-28T04:18:04;14.03;;;6.77;;
35380;SDS011;21486;51.916;8.378;2023-02-28T04:20:30;12.73;;;6.93;;
35380;SDS011;21486;51.916;8.378;2023-02-28T04:22:56;13.90;;;7.10;;
35380;SDS011;21486;51.916;8.378;2023-02-28T04:25:21;11.93;;;7.50;;
35380;SDS011;21486;51.916;8.378;2023-02-28T04:27:47;16.13;;;8.00;;
35380;SDS011;21486;51.916;8.378;2023-02-28T04:30:12;15.32;;;8.55;;
35380;SDS011;21486;51.916;8.378;2023-02-28T04:32:38;16.10;;;8.45;;
35380;SDS011;21486;51.916;8.378;2023-02-28T04:35:03;13.98;;;8.23;;
35380;SDS011;21486;51.916;8.378;2023-02-28T04:37:29;15.73;;;7.38;;
35380;SDS011;21486;51.916;8.378;2023-02-28T04:39:55;11.20;;;7.27;;
35380;SDS011;21486;51.916;8.378;2023-02-28T04:42:20;12.20;;;7.83;;
35380;SDS011;21486;51.916;8.378;2023-02-28T04:44:46;13.90;;;7.50;;
35380;SDS011;21486;51.916;8.378;2023-02-28T04:47:12;13.63;;;7.03;;
35380;SDS011;21486;51.916;8.378;2023-02-28T04:49:37;13.30;;;7.65;;
35380;SDS011;21486;51.916;8.378;2023-02-28T04:52:04;14.05;;;7.13;;
35380;SDS011;21486;51.916;8.378;2023-02-28T04:54:29;12.37;;;6.63;;
35380;SDS011;21486;51.916;8.378;2023-02-28T04:56:55;11.27;;;6.77;;
35380;SDS011;21486;51.916;8.378;2023-02-28T04:59:21;12.63;;;7.22;;
35380;SDS011;21486;51.916;8.378;2023-02-28T05:01:47;11.43;;;6.60;;
35380;SDS011;21486;51.916;8.378;2023-02-28T05:04:14;12.00;;;6.95;;
35380;SDS011;21486;51.916;8.378;2023-02-28T05:06:39;11.10;;;7.13;;
35380;SDS011;21486;51.916;8.378;2023-02-28T05:09:05;13.23;;;7.35;;
35380;SDS011;21486;51.916;8.378;2023-02-28T05:11:31;13.02;;;7.18;;
35380;SDS011;21486;51.916;8.378;2023-02-28T05:14:02;11.00;;;7.03;;
35380;SDS011;21486;51.916;8.378;2023-02-28T05:16:30;13.70;;;7.20;;
35380;SDS011;21486;51.916;8.378;2023-02-28T05:18:56;10.60;;;6.60;;
35380;SDS011;21486;51.916;8.378;2023-02-28T05:21:35;10.60;;;7.27;;
35380;SDS011;21486;51.916;8.378;2023-02-28T05:24:06;11.50;;;7.20;;
35380;SDS011;21486;51.916;8.378;2023-02-28T05:26:35;10.68;;;7.25;;
35380;SDS011;21486;51.916;8.378;2023-02-28T05:29:02;15.73;;;8.02;;
35380;SDS011;21486;51.916;8.378;2023-02-28T05:31:27;13.37;;;7.43;;
35380;SDS011;21486;51.916;8.378;2023-02-28T05:33:53;12.40;;;6.77;;
35380;SDS011;21486;51.916;8.378;2023-02-28T05:36:19;14.30;;;6.87;;
35380;SDS011;21486;51.916;8.378;2023-02-28T05:38:48;12.05;;;6.70;;
35380;SDS011;21486;51.916;8.378;2023-02-28T05:41:15;9.93;;;6.50;;
35380;SDS011;21486;51.916;8.378;2023-02-28T05:43:41;13.05;;;7.05;;
35380;SDS011;21486;51.916;8.378;2023-02-28T05:46:07;13.60;;;7.40;;
35380;SDS011;21486;51.916;8.378;2023-02-28T05:48:34;12.85;;;7.25;;
35380;SDS011;21486;51.916;8.378;2023-02-28T05:51:01;15.00;;;7.20;;
35380;SDS011;21486;51.916;8.378;2023-02-28T05:53:27;12.02;;;6.70;;
35380;SDS011;21486;51.916;8.378;2023-02-28T05:55:53;12.43;;;7.10;;
35380;SDS011;21486;51.916;8.378;2023-02-28T05:58:19;10.80;;;7.00;;
35380;SDS011;21486;51.916;8.378;2023-02-28T06:00:45;14.37;;;7.20;;
35380;SDS011;21486;51.916;8.378;2023-02-28T06:03:10;13.40;;;7.57;;
35380;SDS011;21486;51.916;8.378;2023-02-28T06:05:36;12.60;;;7.70;;
35380;SDS011;21486;51.916;8.378;2023-02-28T06:08:03;14.15;;;8.15;;
35380;SDS011;21486;51.916;8.378;2023-02-28T06:10:30;19.53;;;8.00;;
35380;SDS011;21486;51.916;8.378;2023-02-28T06:12:59;13.27;;;8.33;;
35380;SDS011;21486;51.916;8.378;2023-02-28T06:15:28;15.82;;;8.70;;
35380;SDS011;21486;51.916;8.378;2023-02-28T06:17:54;13.57;;;8.23;;
35380;SDS011;21486;51.916;8.378;2023-02-28T06:20:24;16.45;;;8.18;;
35380;SDS011;21486;51.916;8.378;2023-02-28T06:22:53;14.63;;;7.53;;
35380;SDS011;21486;51.916;8.378;2023-02-28T06:25:21;23.88;;;8.40;;
35380;SDS011;21486;51.916;8.378;2023-02-28T06:27:46;15.93;;;8.25;;
35380;SDS011;21486;51.916;8.378;2023-02-28T06:30:13;13.13;;;8.38;;
35380;SDS011;21486;51.916;8.378;2023-02-28T06:32:38;15.43;;;7.80;;
35380;SDS011;21486;51.916;8.378;2023-02-28T06:35:04;11.30;;;8.00;;
35380;SDS011;21486;51.916;8.378;2023-02-28T06:37:30;11.57;;;7.38;;
35380;SDS011;21486;51.916;8.378;2023-02-28T06:39:57;11.65;;;7.20;;
35380;SDS011;21486;51.916;8.378;2023-02-28T06:42:23;12.30;;;7.20;;
35380;SDS011;21486;51.916;8.378;2023-02-28T06:44:56;11.32;;;7.25;;
35380;SDS011;21486;51.916;8.378;2023-02-28T06:47:23;12.02;;;7.45;;
35380;SDS011;21486;51.916;8.378;2023-02-28T06:49:49;12.68;;;7.00;;
35380;SDS011;21486;51.916;8.378;2023-02-28T06:52:15;19.83;;;7.13;;
35380;SDS011;21486;51.916;8.378;2023-02-28T06:54:40;15.73;;;6.85;;
35380;SDS011;21486;51.916;8.378;2023-02-28T06:57:06;15.98;;;7.40;;
35380;SDS011;21486;51.916;8.378;2023-02-28T06:59:32;15.77;;;7.63;;
35380;SDS011;21486;51.916;8.378;2023-02-28T07:01:58;12.20;;;7.27;;
35380;SDS011;21486;51.916;8.378;2023-02-28T07:04:23;12.83;;;7.47;;
35380;SDS011;21486;51.916;8.378;2023-02-28T07:06:49;14.30;;;7.33;;
35380;SDS011;21486;51.916;8.378;2023-02-28T07:09:15;14.07;;;7.20;;
35380;SDS011;21486;51.916;8.378;2023-02-28T07:11:40;13.48;;;7.28;;
35380;SDS011;21486;51.916;8.378;2023-02-28T07:14:08;20.90;;;8.27;;
35380;SDS011;21486;51.916;8.378;2023-02-28T07:16:34;17.20;;;9.13;;
35380;SDS011;21486;51.916;8.378;2023-02-28T07:19:00;17.75;;;8.95;;
35380;SDS011;21486;51.916;8.378;2023-02-28T07:21:43;13.50;;;7.07;;
35380;SDS011;21486;51.916;8.378;2023-02-28T07:24:12;11.18;;;6.72;;
35380;SDS011;21486;51.916;8.378;2023-02-28T07:26:50;12.90;;;6.90;;
35380;SDS011;21486;51.916;8.378;2023-02-28T07:29:32;13.15;;;7.30;;
35380;SDS011;21486;51.916;8.378;2023-02-28T07:32:18;15.15;;;7.00;;
35380;SDS011;21486;51.916;8.378;2023-02-28T07:34:57;12.07;;;7.40;;
35380;SDS011;21486;51.916;8.378;2023-02-28T07:37:29;12.85;;;6.90;;
35380;SDS011;21486;51.916;8.378;2023-02-28T07:40:18;12.25;;;7.10;;
35380;SDS011;21486;51.916;8.378;2023-02-28T07:42:44;18.75;;;7.30;;
35380;SDS011;21486;51.916;8.378;2023-02-28T07:45:10;14.30;;;6.80;;
35380;SDS011;21486;51.916;8.378;2023-02-28T07:47:38;24.83;;;7.47;;
35380;SDS011;21486;51.916;8.378;2023-02-28T07:50:05;20.35;;;6.88;;
35380;SDS011;21486;51.916;8.378;2023-02-28T07:52:31;20.63;;;8.25;;
35380;SDS011;21486;51.916;8.378;2023-02-28T07:54:57;19.97;;;7.17;;
35380;SDS011;21486;51.916;8.378;2023-02-28T07:57:23;15.20;;;7.03;;
35380;SDS011;21486;51.916;8.378;2023-02-28T07:59:48;18.10;;;7.37;;
35380;SDS011;21486;51.916;8.378;2023-02-28T08:02:15;20.60;;;7.05;;
35380;SDS011;21486;51.916;8.378;2023-02-28T08:04:41;24.13;;;6.53;;
35380;SDS011;21486;51.916;8.378;2023-02-28T08:07:07;17.03;;;6.10;;
35380;SDS011;21486;51.916;8.378;2023-02-28T08:09:33;15.63;;;6.33;;
35380;SDS011;21486;51.916;8.378;2023-02-28T08:11:59;13.43;;;6.20;;
35380;SDS011;21486;51.916;8.378;2023-02-28T08:14:25;16.55;;;6.82;;
35380;SDS011;21486;51.916;8.378;2023-02-28T08:16:50;13.50;;;6.47;;
35380;SDS011;21486;51.916;8.378;2023-02-28T08:19:16;15.90;;;5.73;;
35380;SDS011;21486;51.916;8.378;2023-02-28T08:21:41;13.50;;;5.57;;
35380;SDS011;21486;51.916;8.378;2023-02-28T08:24:07;10.27;;;4.97;;
35380;SDS011;21486;51.916;8.378;2023-02-28T08:26:32;13.10;;;4.53;;
35380;SDS011;21486;51.916;8.378;2023-02-28T08:28:58;13.60;;;4.47;;
35380;SDS011;21486;51.916;8.378;2023-02-28T08:31:24;10.20;;;4.50;;
35380;SDS011;21486;51.916;8.378;2023-02-28T08:33:49;12.13;;;4.77;;
35380;SDS011;21486;51.916;8.378;2023-02-28T08:36:17;9.63;;;4.10;;
35380;SDS011;21486;51.916;8.378;2023-02-28T08:38:44;9.40;;;4.07;;
35380;SDS011;21486;51.916;8.378;2023-02-28T08:41:10;9.88;;;3.50;;
35380;SDS011;21486;51.916;8.378;2023-02-28T08:43:37;5.70;;;2.80;;
35380;SDS011;21486;51.916;8.378;2023-02-28T08:46:03;4.10;;;2.85;;
35380;SDS011;21486;51.916;8.378;2023-02-28T08:48:30;6.78;;;2.88;;
35380;SDS011;21486;51.916;8.378;2023-02-28T08:51:01;6.60;;;2.88;;
35380;SDS011;21486;51.916;8.378;2023-02-28T08:53:29;3.93;;;2.70;;
35380;SDS011;21486;51.916;8.378;2023-02-28T08:56:05;4.70;;;2.50;;
35380;SDS011;21486;51.916;8.378;2023-02-28T08:58:32;3.33;;;2.60;;
35380;SDS011;21486;51.916;8.378;2023-02-28T09:00:59;6.88;;;2.70;;
35380;SDS011;21486;51.916;8.378;2023-02-28T09:03:25;6.72;;;2.28;;
35380;SDS011;21486;51.916;8.378;2023-02-28T09:06:01;3.33;;;2.25;;
35380;SDS011;21486;51.916;8.378;2023-02-28T09:08:28;5.78;;;2.25;;
35380;SDS011;21486;51.916;8.378;2023-02-28T09:10:57;4.57;;;2.20;;
35380;SDS011;21486;51.916;8.378;2023-02-28T09:13:24;3.22;;;1.90;;
35380;SDS011;21486;51.916;8.378;2023-02-28T09:15:52;3.58;;;1.60;;
35380;SDS011;21486;51.916;8.378;2023-02-28T09:18:18;5.53;;;2.00;;
35380;SDS011;21486;51.916;8.378;2023-02-28T09:20:44;3.92;;;2.40;;
35380;SDS011;21486;51.916;8.378;2023-02-28T09:23:10;2.47;;;2.20;;
35380;SDS011;21486;51.916;8.378;2023-02-28T09:25:37;4.90;;;2.40;;
35380;SDS011;21486;51.916;8.378;2023-02-28T09:28:09;4.40;;;2.17;;
35380;SDS011;21486;51.916;8.378;2023-02-28T10:25:19;4.43;;;2.70;;
35380;SDS011;21486;51.916;8.378;2023-02-28T10:27:53;4.10;;;2.60;;
35380;SDS011;21486;51.916;8.378;2023-02-28T10:30:23;8.10;;;2.53;;
35380;SDS011;21486;51.916;8.378;2023-02-28T10:32:50;4.45;;;2.35;;
35380;SDS011;21486;51.916;8.378;2023-02-28T10:35:22;2.90;;;2.15;;
35380;SDS011;21486;51.916;8.378;2023-02-28T10:37:50;4.80;;;2.40;;
35380;SDS011;21486;51.916;8.378;2023-02-28T10:42:56;3.97;;;2.25;;
35380;SDS011;21486;51.916;8.378;2023-02-28T10:45:30;4.95;;;2.30;;
35380;SDS011;21486;51.916;8.378;2023-02-28T10:53:06;3.05;;;2.08;;
35380;SDS011;21486;51.916;8.378;2023-02-28T10:55:42;4.15;;;2.53;;
35380;SDS011;21486;51.916;8.378;2023-02-28T10:58:20;2.83;;;2.13;;
35380;SDS011;21486;51.916;8.378;2023-02-28T11:00:47;3.08;;;2.50;;
35380;SDS011;21486;51.916;8.378;2023-02-28T11:03:27;3.08;;;2.20;;
35380;SDS011;21486;51.916;8.378;2023-02-28T11:05:55;6.55;;;2.70;;
35380;SDS011;21486;51.916;8.378;2023-02-28T11:08:21;4.38;;;2.25;;
35380;SDS011;21486;51.916;8.378;2023-02-28T11:10:48;3.60;;;2.25;;
35380;SDS011;21486;51.916;8.378;2023-02-28T11:13:24;2.47;;;2.17;;
35380;SDS011;21486;51.916;8.378;2023-02-28T11:15:53;5.47;;;2.33;;
35380;SDS011;21486;51.916;8.378;2023-02-28T11:18:23;4.57;;;2.20;;
35380;SDS011;21486;51.916;8.378;2023-02-28T11:21:04;4.78;;;1.88;;
35380;SDS011;21486;51.916;8.378;2023-02-28T11:23:30;3.42;;;2.10;;
35380;SDS011;21486;51.916;8.378;2023-02-28T12:27:13;3.65;;;2.50;;
35380;SDS011;21486;51.916;8.378;2023-02-28T12:29:49;5.50;;;2.20;;
35380;SDS011;21486;51.916;8.378;2023-02-28T12:32:23;5.13;;;2.60;;
35380;SDS011;21486;51.916;8.378;2023-02-28T12:34:57;3.15;;;2.50;;
35380;SDS011;21486;51.916;8.378;2023-02-28T12:37:39;5.88;;;2.65;;
35380;SDS011;21486;51.916;8.378;2023-02-28T12:40:14;4.40;;;3.03;;
35380;SDS011;21486;51.916;8.378;2023-02-28T12:42:46;6.03;;;2.70;;
35380;SDS011;21486;51.916;8.378;2023-02-28T12:45:31;5.28;;;2.70;;
35380;SDS011;21486;51.916;8.378;2023-02-28T12:48:14;5.18;;;2.50;;
35380;SDS011;21486;51.916;8.378;2023-02-28T12:50:45;4.18;;;2.63;;
35380;SDS011;21486;51.916;8.378;2023-02-28T12:53:26;6.45;;;3.05;;
35380;SDS011;21486;51.916;8.378;2023-02-28T12:58:50;13.93;;;8.23;;
35380;SDS011;21486;51.916;8.378;2023-02-28T13:07:10;16.27;;;9.53;;
35380;SDS011;21486;51.916;8.378;2023-02-28T13:09:57;5.63;;;3.38;;
35380;SDS011;21486;51.916;8.378;2023-02-28T13:12:25;8.55;;;4.10;;
35380;SDS011;21486;51.916;8.378;2023-02-28T13:15:00;22.30;;;12.87;;
35380;SDS011;21486;51.916;8.378;2023-02-28T13:17:44;43.58;;;24.27;;
35380;SDS011;21486;51.916;8.378;2023-02-28T13:20:15;6.05;;;4.00;;
35380;SDS011;21486;51.916;8.378;2023-02-28T13:22:46;5.60;;;2.90;;
35380;SDS011;21486;51.916;8.378;2023-02-28T13:28:09;4.25;;;2.70;;
35380;SDS011;21486;51.916;8.378;2023-02-28T13:33:24;5.00;;;2.75;;
35380;SDS011;21486;51.916;8.378;2023-02-28T13:38:51;4.45;;;2.20;;
35380;SDS011;21486;51.916;8.378;2023-02-28T13:49:31;4.57;;;2.40;;
35380;SDS011;21486;51.916;8.378;2023-02-28T13:58:03;6.63;;;2.33;;
35380;SDS011;21486;51.916;8.378;2023-02-28T14:03:46;10.95;;;2.88;;
